Time;durP1;ratioP1;P1;durP2;ratioP2;P2;SDS_P1;SDS_P2;PMS_P1;PMS_P2;Temp;Humidity;BMP_temperature;BMP_pressure;BME280_temperature;BME280_humidity;BME280_pressure;Samples;Min_cycle;Max_cycle;Signal;HPM_P1;HPM_P2
2023/05/02 00:02:21;;;;;;;6.95;4.85;;;;;;;;;;5057580;28;20043;-58
2023/05/02 00:04:47;;;;;;;5.40;4.22;;;;;;;;;;5057812;28;20073;-58
2023/05/02 00:07:12;;;;;;;8.45;4.95;;;;;;;;;;5057512;28;20376;-58
2023/05/02 00:09:37;;;;;;;5.50;4.95;;;;;;;;;;5057106;28;20037;-58
2023/05/02 00:12:03;;;;;;;6.40;5.22;;;;;;;;;;5057247;28;20055;-58
2023/05/02 00:14:28;;;;;;;7.32;4.50;;;;;;;;;;5057321;28;20113;-58
2023/05/02 00:16:54;;;;;;;6.78;4.82;;;;;;;;;;5057066;28;20444;-58
2023/05/02 00:19:19;;;;;;;6.97;5.13;;;;;;;;;;5057036;28;20029;-58
2023/05/02 00:21:48;;;;;;;8.32;4.72;;;;;;;;;;5056948;28;20106;-58
2023/05/02 00:24:13;;;;;;;8.50;4.88;;;;;;;;;;5057357;28;20039;-58
2023/05/02 00:26:39;;;;;;;8.65;5.20;;;;;;;;;;5057015;28;20021;-58
2023/05/02 00:29:04;;;;;;;8.52;4.65;;;;;;;;;;5056755;28;20052;-58
2023/05/02 00:31:29;;;;;;;5.53;4.72;;;;;;;;;;5057005;28;20068;-58
2023/05/02 00:33:55;;;;;;;6.20;4.65;;;;;;;;;;5055485;28;20124;-58
2023/05/02 00:36:20;;;;;;;5.55;4.50;;;;;;;;;;5056918;28;20021;-58
2023/05/02 00:38:45;;;;;;;7.00;5.15;;;;;;;;;;5055421;28;20148;-58
2023/05/02 00:41:11;;;;;;;9.18;5.30;;;;;;;;;;5055551;28;20087;-58
2023/05/02 00:43:38;;;;;;;8.65;5.15;;;;;;;;;;5056889;28;20028;-58
2023/05/02 00:46:03;;;;;;;8.00;4.85;;;;;;;;;;5055268;28;20120;-58
2023/05/02 00:48:29;;;;;;;6.03;4.85;;;;;;;;;;5056651;28;20120;-58
2023/05/02 00:50:56;;;;;;;7.25;5.00;;;;;;;;;;5055187;28;20036;-58
2023/05/02 00:53:21;;;;;;;8.52;4.90;;;;;;;;;;5056603;28;20029;-58
2023/05/02 00:55:48;;;;;;;7.47;4.72;;;;;;;;;;5056289;28;20028;-58
2023/05/02 00:58:15;;;;;;;6.25;4.75;;;;;;;;;;5055816;28;20033;-58
2023/05/02 01:00:43;;;;;;;7.47;4.70;;;;;;;;;;5056461;28;20025;-58
2023/05/02 01:03:14;;;;;;;7.57;5.07;;;;;;;;;;5056673;28;20135;-58
2023/05/02 01:05:39;;;;;;;;;;;;;;;;;;5056802;28;20029;-58
2023/05/02 01:08:19;;;;;;;7.95;5.13;;;;;;;;;;5056364;28;19908;-58
2023/05/02 01:10:51;;;;;;;5.43;4.50;;;;;;;;;;5054762;28;20037;-58
2023/05/02 01:13:17;;;;;;;8.50;4.72;;;;;;;;;;5055972;28;20028;-58
2023/05/02 01:15:44;;;;;;;6.95;5.10;;;;;;;;;;5055039;28;20031;-58
2023/05/02 01:18:11;;;;;;;5.75;4.65;;;;;;;;;;5056144;28;20029;-58
2023/05/02 01:20:40;;;;;;;7.00;4.45;;;;;;;;;;5055889;28;20438;-58
2023/05/02 01:23:10;;;;;;;6.82;4.70;;;;;;;;;;5056098;28;20125;-58
2023/05/02 01:25:55;;;;;;;7.90;4.97;;;;;;;;;;5054508;28;20029;-58
2023/05/02 01:28:23;;;;;;;6.18;5.10;;;;;;;;;;5054206;28;20049;-58
2023/05/02 01:30:49;;;;;;;5.60;4.57;;;;;;;;;;5056248;28;20195;-58
2023/05/02 01:33:16;;;;;;;8.25;5.38;;;;;;;;;;5055663;28;20491;-58
2023/05/02 01:35:45;;;;;;;6.60;5.03;;;;;;;;;;5054435;28;20078;-58
2023/05/02 01:38:14;;;;;;;6.03;4.40;;;;;;;;;;5055808;28;20033;-58
2023/05/02 01:40:42;;;;;;;8.35;4.88;;;;;;;;;;5054205;28;20025;-58
2023/05/02 01:43:08;;;;;;;6.90;5.25;;;;;;;;;;5055461;28;20043;-58
2023/05/02 01:45:34;;;;;;;7.43;5.25;;;;;;;;;;5055667;28;20090;-58
2023/05/02 01:48:00;;;;;;;8.50;4.85;;;;;;;;;;5054089;28;20017;-58
2023/05/02 01:50:26;;;;;;;9.30;4.82;;;;;;;;;;5053996;28;20056;-58
2023/05/02 01:52:52;;;;;;;6.30;4.95;;;;;;;;;;5055519;28;20166;-58
2023/05/02 01:55:18;;;;;;;5.43;4.32;;;;;;;;;;5055224;28;20096;-58
2023/05/02 01:57:45;;;;;;;6.45;4.53;;;;;;;;;;5053909;28;20258;-58
2023/05/02 02:00:12;;;;;;;7.55;5.35;;;;;;;;;;5053879;28;20037;-58
2023/05/02 02:02:41;;;;;;;5.05;4.55;;;;;;;;;;5037569;28;20052;-58
2023/05/02 02:05:07;;;;;;;6.25;4.82;;;;;;;;;;5053764;28;20109;-57
2023/05/02 02:07:34;;;;;;;5.80;5.10;;;;;;;;;;5053606;28;20025;-58
2023/05/02 02:09:59;;;;;;;9.20;5.15;;;;;;;;;;5052639;28;20055;-57
2023/05/02 02:12:30;;;;;;;7.45;4.65;;;;;;;;;;5053751;28;20049;-57
2023/05/02 02:15:01;;;;;;;7.15;4.70;;;;;;;;;;5036991;28;20100;-57
2023/05/02 02:17:35;;;;;;;7.00;4.88;;;;;;;;;;5055102;28;20112;-57
2023/05/02 02:20:04;;;;;;;8.63;5.18;;;;;;;;;;5053557;28;20108;-57
2023/05/02 02:22:29;;;;;;;5.18;4.50;;;;;;;;;;5055206;28;20060;-58
2023/05/02 02:24:56;;;;;;;8.55;4.90;;;;;;;;;;5054849;28;20110;-58
2023/05/02 02:27:21;;;;;;;5.63;4.57;;;;;;;;;;5053466;28;20071;-58
2023/05/02 02:29:46;;;;;;;5.93;4.63;;;;;;;;;;5053061;28;20049;-58
2023/05/02 02:32:12;;;;;;;6.28;4.70;;;;;;;;;;5053701;28;20120;-58
2023/05/02 02:34:37;;;;;;;6.70;4.40;;;;;;;;;;5052931;28;20116;-57
2023/05/02 02:37:02;;;;;;;7.18;4.32;;;;;;;;;;5054998;28;20063;-58
2023/05/02 02:39:44;;;;;;;5.60;4.57;;;;;;;;;;5054627;28;20116;-58
2023/05/02 02:42:14;;;;;;;6.03;4.35;;;;;;;;;;5053054;28;20037;-58
2023/05/02 02:44:58;;;;;;;6.68;4.97;;;;;;;;;;5054745;28;20033;-58
2023/05/02 02:47:42;;;;;;;5.47;4.35;;;;;;;;;;5052975;28;20163;-58
2023/05/02 02:50:30;;;;;;;5.93;4.63;;;;;;;;;;5054649;28;20048;-58
2023/05/02 02:52:55;;;;;;;7.20;4.55;;;;;;;;;;5054657;28;20029;-58
2023/05/02 02:55:37;;;;;;;8.05;4.85;;;;;;;;;;5053658;28;20458;-58
2023/05/02 02:58:08;;;;;;;8.63;4.40;;;;;;;;;;5054291;28;20048;-58
2023/05/02 03:00:33;;;;;;;6.15;4.70;;;;;;;;;;5052734;28;20037;-57
2023/05/02 03:02:59;;;;;;;8.30;4.97;;;;;;;;;;5054243;28;20040;-58
2023/05/02 03:05:24;;;;;;;5.38;4.32;;;;;;;;;;5054253;28;20036;-58
2023/05/02 03:07:50;;;;;;;8.48;4.53;;;;;;;;;;5054404;28;20029;-58
2023/05/02 03:10:16;;;;;;;6.15;4.30;;;;;;;;;;5052806;28;20025;-58
2023/05/02 03:12:42;;;;;;;4.97;4.50;;;;;;;;;;5053807;28;20040;-58
2023/05/02 03:15:23;;;;;;;7.13;4.25;;;;;;;;;;5052535;28;20495;-58
2023/05/02 03:17:48;;;;;;;;;;;;;;;;;;5053187;28;20028;-57
2023/05/02 03:20:13;;;;;;;6.53;4.30;;;;;;;;;;5052152;28;20335;-58
2023/05/02 03:22:39;;;;;;;7.60;4.50;;;;;;;;;;5052542;28;20029;-58
2023/05/02 03:25:05;;;;;;;5.28;3.60;;;;;;;;;;5052698;28;20079;-58
2023/05/02 03:27:30;;;;;;;4.93;3.92;;;;;;;;;;5053113;28;20031;-58
2023/05/02 03:29:58;;;;;;;4.55;3.58;;;;;;;;;;5073601;28;20467;-58
2023/05/02 03:32:25;;;;;;;4.05;3.65;;;;;;;;;;5073223;28;20127;-58
2023/05/02 03:34:51;;;;;;;4.15;3.75;;;;;;;;;;5072364;28;20020;-58
2023/05/02 03:37:16;;;;;;;4.43;4.03;;;;;;;;;;5073610;28;20078;-58
2023/05/02 03:39:42;;;;;;;5.18;3.88;;;;;;;;;;5072294;28;20510;-58
2023/05/02 03:42:08;;;;;;;4.25;3.88;;;;;;;;;;5072270;28;20120;-58
2023/05/02 03:44:33;;;;;;;4.25;3.85;;;;;;;;;;5072297;28;20111;-58
2023/05/02 03:46:58;;;;;;;5.80;3.97;;;;;;;;;;5073691;28;20035;-58
2023/05/02 03:49:25;;;;;;;4.80;4.20;;;;;;;;;;5072181;28;20118;-58
2023/05/02 03:51:52;;;;;;;7.88;4.00;;;;;;;;;;5072184;28;20020;-58
2023/05/02 03:54:22;;;;;;;5.22;3.72;;;;;;;;;;5072155;28;20024;-58
2023/05/02 03:56:48;;;;;;;6.00;4.20;;;;;;;;;;5072737;28;20523;-58
2023/05/02 03:59:26;;;;;;;5.30;4.05;;;;;;;;;;5072118;28;20483;-57
2023/05/02 04:01:51;;;;;;;4.05;3.75;;;;;;;;;;5055520;28;20070;-58
2023/05/02 04:04:21;;;;;;;5.50;3.90;;;;;;;;;;5072901;28;20404;-58
2023/05/02 04:06:50;;;;;;;6.15;3.80;;;;;;;;;;5072041;28;20035;-58
2023/05/02 04:09:15;;;;;;;5.43;3.67;;;;;;;;;;5072522;28;20029;-58
2023/05/02 04:11:48;;;;;;;4.55;4.10;;;;;;;;;;5072003;28;20074;-58
2023/05/02 04:14:13;;;;;;;3.67;3.20;;;;;;;;;;5071946;28;20079;-58
2023/05/02 04:16:40;;;;;;;4.18;3.30;;;;;;;;;;5071951;28;20059;-58
2023/05/02 04:19:05;;;;;;;3.75;3.42;;;;;;;;;;5071942;28;20064;-58
2023/05/02 04:21:31;;;;;;;3.55;3.25;;;;;;;;;;5071926;28;20114;-58
2023/05/02 04:23:57;;;;;;;4.10;3.72;;;;;;;;;;5071873;28;20026;-58
2023/05/02 04:26:23;;;;;;;4.20;3.80;;;;;;;;;;5071826;28;20589;-58
2023/05/02 04:28:55;;;;;;;4.13;3.45;;;;;;;;;;5071861;28;20127;-58
2023/05/02 04:31:20;;;;;;;5.03;3.53;;;;;;;;;;5072156;28;20060;-58
2023/05/02 04:33:47;;;;;;;4.32;3.72;;;;;;;;;;5075405;28;20036;-58
2023/05/02 04:36:15;;;;;;;6.95;4.35;;;;;;;;;;5075721;28;20033;-57
2023/05/02 04:38:44;;;;;;;6.40;3.92;;;;;;;;;;5075956;28;20025;-57
2023/05/02 04:41:09;;;;;;;5.47;4.22;;;;;;;;;;5075372;28;20070;-58
2023/05/02 04:43:39;;;;;;;4.72;4.18;;;;;;;;;;5075342;28;20024;-57
2023/05/02 04:46:05;;;;;;;5.25;3.97;;;;;;;;;;5075239;28;20426;-58
2023/05/02 04:48:34;;;;;;;4.30;3.60;;;;;;;;;;5075099;28;20441;-58
2023/05/02 04:51:00;;;;;;;4.28;3.88;;;;;;;;;;5075255;28;20029;-58
2023/05/02 04:53:25;;;;;;;5.82;3.97;;;;;;;;;;5075065;28;20025;-58
2023/05/02 04:55:51;;;;;;;6.05;3.67;;;;;;;;;;5075030;28;20024;-58
2023/05/02 04:58:17;;;;;;;6.25;4.28;;;;;;;;;;5075209;28;20043;-59
2023/05/02 05:00:46;;;;;;;5.05;4.38;;;;;;;;;;5069632;28;20497;-52
2023/05/02 05:03:11;;;;;;;6.25;4.28;;;;;;;;;;5064237;28;20033;-52
2023/05/02 05:05:37;;;;;;;5.72;4.50;;;;;;;;;;5062328;28;20029;-52
2023/05/02 05:08:05;;;;;;;4.82;4.32;;;;;;;;;;5063587;28;20017;-52
2023/05/02 05:10:34;;;;;;;5.13;3.80;;;;;;;;;;5064172;28;20021;-52
2023/05/02 05:13:00;;;;;;;4.47;4.00;;;;;;;;;;5053590;28;20104;-53
2023/05/02 05:15:26;;;;;;;5.72;3.85;;;;;;;;;;5053719;28;20052;-52
2023/05/02 05:17:55;;;;;;;10.27;4.65;;;;;;;;;;5053689;28;20067;-52
2023/05/02 05:20:21;;;;;;;7.15;4.70;;;;;;;;;;5053600;28;20033;-52
2023/05/02 05:22:49;;;;;;;8.73;4.53;;;;;;;;;;5053485;28;20037;-53
2023/05/02 05:25:17;;;;;;;8.52;4.30;;;;;;;;;;5058195;28;20043;-53
2023/05/02 05:27:44;;;;;;;5.93;4.05;;;;;;;;;;5062290;28;20113;-53
2023/05/02 05:30:10;;;;;;;6.97;4.18;;;;;;;;;;5062837;28;20025;-52
2023/05/02 05:32:36;;;;;;;11.63;3.78;;;;;;;;;;5062145;28;20063;-52
2023/05/02 05:35:01;;;;;;;6.07;3.53;;;;;;;;;;5064071;28;20025;-52
2023/05/02 05:37:27;;;;;;;5.22;3.47;;;;;;;;;;5063560;28;20072;-53
2023/05/02 05:39:54;;;;;;;6.30;3.45;;;;;;;;;;5060841;28;20363;-52
2023/05/02 05:42:19;;;;;;;4.15;3.20;;;;;;;;;;5062748;28;20145;-53
2023/05/02 05:44:48;;;;;;;4.50;2.70;;;;;;;;;;5061897;28;20021;-52
2023/05/02 05:47:18;;;;;;;2.35;2.15;;;;;;;;;;5060541;28;20426;-53
2023/05/02 05:49:44;;;;;;;1.95;1.75;;;;;;;;;;5063217;28;20112;-53
2023/05/02 05:52:10;;;;;;;2.80;2.22;;;;;;;;;;5061987;28;20104;-53
2023/05/02 05:54:35;;;;;;;2.88;1.90;;;;;;;;;;5060392;28;20021;-52
2023/05/02 05:57:02;;;;;;;2.97;2.60;;;;;;;;;;5062496;28;20028;-53
2023/05/02 05:59:28;;;;;;;4.53;2.85;;;;;;;;;;5061669;28;20387;-52
2023/05/02 06:01:54;;;;;;;3.17;2.55;;;;;;;;;;5060355;28;20033;-53
2023/05/02 06:04:21;;;;;;;2.47;2.28;;;;;;;;;;5062494;28;20023;-52
2023/05/02 06:06:50;;;;;;;2.75;2.45;;;;;;;;;;5061855;28;20033;-52
2023/05/02 06:09:15;;;;;;;2.92;2.55;;;;;;;;;;5060327;28;20102;-53
2023/05/02 06:11:40;;;;;;;2.92;2.20;;;;;;;;;;5063417;28;20466;-52
2023/05/02 06:14:07;;;;;;;2.65;2.20;;;;;;;;;;5061303;28;20517;-52
2023/05/02 06:16:32;;;;;;;2.17;1.98;;;;;;;;;;5060083;28;20025;-53
2023/05/02 06:18:57;;;;;;;3.38;2.35;;;;;;;;;;5064490;28;20082;-52
2023/05/02 06:21:23;;;;;;;3.38;2.58;;;;;;;;;;5066379;28;20119;-52
2023/05/02 06:23:48;;;;;;;3.00;2.63;;;;;;;;;;5061852;28;20028;-52
2023/05/02 06:26:13;;;;;;;2.20;2.00;;;;;;;;;;5054488;28;20033;-52
2023/05/02 06:28:39;;;;;;;3.15;2.22;;;;;;;;;;5054093;28;20048;-52
2023/05/02 06:31:04;;;;;;;2.00;1.90;;;;;;;;;;5054289;28;20021;-52
2023/05/02 06:33:30;;;;;;;2.35;2.03;;;;;;;;;;5055076;28;20033;-53
2023/05/02 06:35:55;;;;;;;2.80;1.40;;;;;;;;;;5054462;28;20025;-53
2023/05/02 06:38:21;;;;;;;2.13;1.92;;;;;;;;;;5054467;28;20029;-53
2023/05/02 06:40:47;;;;;;;2.22;1.65;;;;;;;;;;5054353;28;20119;-52
2023/05/02 06:43:12;;;;;;;1.70;1.55;;;;;;;;;;5053906;28;20120;-53
2023/05/02 06:45:38;;;;;;;2.10;1.30;;;;;;;;;;5055090;23;20064;-53
2023/05/02 06:48:04;;;;;;;1.55;1.45;;;;;;;;;;5042518;22;20065;-57
2023/05/02 06:50:29;;;;;;;5.07;1.48;;;;;;;;;;5074218;23;20400;-53
2023/05/02 06:52:55;;;;;;;1.38;1.23;;;;;;;;;;5081353;23;20059;-53
2023/05/02 06:55:20;;;;;;;1.42;1.33;;;;;;;;;;5092959;23;20662;-52
2023/05/02 06:57:47;;;;;;;1.55;1.42;;;;;;;;;;5084206;23;20502;-52
2023/05/02 07:00:13;;;;;;;2.22;1.33;;;;;;;;;;5073032;28;20475;-53
2023/05/02 07:02:38;;;;;;;1.42;0.77;;;;;;;;;;5071752;28;20047;-53
2023/05/02 07:05:04;;;;;;;1.70;1.60;;;;;;;;;;5071830;28;20028;-52
2023/05/02 07:07:29;;;;;;;2.72;1.63;;;;;;;;;;5071892;28;20020;-53
2023/05/02 07:09:54;;;;;;;1.77;1.35;;;;;;;;;;5071722;28;20059;-52
2023/05/02 07:12:20;;;;;;;1.17;1.17;;;;;;;;;;5053817;28;20016;-53
2023/05/02 07:14:45;;;;;;;2.42;1.25;;;;;;;;;;5071794;28;20067;-53
2023/05/02 07:17:11;;;;;;;1.67;1.58;;;;;;;;;;5071717;28;20082;-53
2023/05/02 07:19:36;;;;;;;1.80;1.70;;;;;;;;;;5071670;28;20031;-52
2023/05/02 07:22:02;;;;;;;3.40;1.45;;;;;;;;;;5053538;28;20394;-52
2023/05/02 07:24:27;;;;;;;2.85;1.88;;;;;;;;;;5071563;28;20035;-52
2023/05/02 07:26:52;;;;;;;2.00;1.75;;;;;;;;;;5071854;28;20040;-52
2023/05/02 07:29:18;;;;;;;2.38;1.38;;;;;;;;;;5073541;28;20119;-53
2023/05/02 07:31:43;;;;;;;2.05;1.42;;;;;;;;;;5073216;28;20032;-52
2023/05/02 07:34:08;;;;;;;2.65;1.45;;;;;;;;;;5074050;28;20024;-52
2023/05/02 07:36:34;;;;;;;2.22;1.30;;;;;;;;;;5073581;28;20024;-52
2023/05/02 07:38:59;;;;;;;1.60;1.25;;;;;;;;;;5060205;28;20024;-53
2023/05/02 07:41:24;;;;;;;1.90;1.70;;;;;;;;;;5053473;28;20383;-53
2023/05/02 07:43:50;;;;;;;2.17;1.33;;;;;;;;;;5057437;28;20052;-52
2023/05/02 07:46:15;;;;;;;2.85;1.60;;;;;;;;;;5055312;28;20029;-53
2023/05/02 07:48:41;;;;;;;2.03;1.55;;;;;;;;;;5068213;28;20119;-52
2023/05/02 07:51:08;;;;;;;2.58;1.75;;;;;;;;;;5037743;28;20029;-52
2023/05/02 07:53:33;;;;;;;1.23;0.98;;;;;;;;;;5035937;28;20475;-53
2023/05/02 07:55:58;;;;;;;1.80;1.15;;;;;;;;;;5053657;28;20083;-52
2023/05/02 07:58:24;;;;;;;1.38;1.27;;;;;;;;;;5053160;28;20051;-53
2023/05/02 08:00:49;;;;;;;3.67;1.60;;;;;;;;;;5053597;28;20037;-52
2023/05/02 08:03:14;;;;;;;2.00;1.88;;;;;;;;;;5053266;28;20025;-52
2023/05/02 08:05:40;;;;;;;2.00;1.73;;;;;;;;;;5053972;28;20056;-52
2023/05/02 08:08:06;;;;;;;1.65;1.45;;;;;;;;;;5057495;28;20032;-52
2023/05/02 08:10:31;;;;;;;3.03;1.80;;;;;;;;;;5057147;28;20032;-53
2023/05/02 08:12:56;;;;;;;1.40;1.30;;;;;;;;;;5057724;28;20098;-52
2023/05/02 08:15:22;;;;;;;2.25;2.05;;;;;;;;;;5057094;28;20422;-53
2023/05/02 08:17:47;;;;;;;1.70;1.60;;;;;;;;;;5057325;28;20025;-53
2023/05/02 08:20:12;;;;;;;3.58;1.67;;;;;;;;;;5057551;28;20020;-53
2023/05/02 08:22:38;;;;;;;1.95;1.77;;;;;;;;;;5039468;28;20037;-53
2023/05/02 08:25:03;;;;;;;2.70;2.10;;;;;;;;;;5057366;28;20032;-55
2023/05/02 08:27:29;;;;;;;2.17;1.98;;;;;;;;;;5057379;28;20494;-53
2023/05/02 08:29:54;;;;;;;2.45;2.25;;;;;;;;;;5023304;28;20028;-52
2023/05/02 08:32:21;;;;;;;2.53;1.63;;;;;;;;;;5056789;28;20021;-53
2023/05/02 08:34:46;;;;;;;2.28;1.88;;;;;;;;;;5057005;28;20033;-52
2023/05/02 08:37:12;;;;;;;2.88;2.00;;;;;;;;;;5056706;28;20025;-53
2023/05/02 08:39:37;;;;;;;6.78;2.78;;;;;;;;;;5021960;28;20029;-53
2023/05/02 08:42:09;;;;;;;3.70;2.35;;;;;;;;;;5056746;28;20108;-52
2023/05/02 08:44:34;;;;;;;3.22;2.05;;;;;;;;;;5056571;28;20120;-52
2023/05/02 08:47:00;;;;;;;2.00;1.90;;;;;;;;;;5056610;28;20064;-53
2023/05/02 08:49:26;;;;;;;2.10;1.92;;;;;;;;;;5056367;28;20035;-52
2023/05/02 08:51:54;;;;;;;2.95;2.00;;;;;;;;;;5056381;28;20533;-53
2023/05/02 08:54:20;;;;;;;1.63;1.48;;;;;;;;;;5075791;28;20040;-53
2023/05/02 08:56:45;;;;;;;2.45;2.10;;;;;;;;;;5060289;28;20041;-53
2023/05/02 08:59:10;;;;;;;2.30;2.13;;;;;;;;;;5056280;28;20064;-52
2023/05/02 09:01:36;;;;;;;2.20;2.00;;;;;;;;;;5056314;28;20024;-53
2023/05/02 09:04:01;;;;;;;2.83;2.08;;;;;;;;;;5038477;28;20537;-52
2023/05/02 09:06:28;;;;;;;2.15;1.98;;;;;;;;;;5056178;28;20033;-53
2023/05/02 09:08:53;;;;;;;3.45;1.95;;;;;;;;;;5055870;28;20029;-52
2023/05/02 09:11:20;;;;;;;1.92;1.83;;;;;;;;;;5056239;28;20021;-53
2023/05/02 09:13:49;;;;;;;3.05;2.33;;;;;;;;;;5056070;28;20028;-53
2023/05/02 09:16:16;;;;;;;2.00;1.77;;;;;;;;;;5038257;28;20029;-53
2023/05/02 09:18:41;;;;;;;3.95;2.00;;;;;;;;;;5037844;28;20036;-53
2023/05/02 09:21:08;;;;;;;3.15;1.88;;;;;;;;;;5055858;28;20083;-53
2023/05/02 09:23:33;;;;;;;2.47;1.95;;;;;;;;;;5073401;28;20025;-53
2023/05/02 09:25:59;;;;;;;2.80;1.65;;;;;;;;;;5075805;28;20047;-53
2023/05/02 09:28:41;;;;;;;4.63;1.52;;;;;;;;;;5075752;28;20089;-53
2023/05/02 09:31:08;;;;;;;2.92;1.60;;;;;;;;;;5069691;28;20528;-53
2023/05/02 09:33:33;;;;;;;1.65;1.55;;;;;;;;;;5064971;28;20025;-53
2023/05/02 09:35:59;;;;;;;1.85;1.65;;;;;;;;;;5062875;28;20048;-53
2023/05/02 09:38:24;;;;;;;2.00;1.80;;;;;;;;;;5064970;28;20032;-53
2023/05/02 09:40:55;;;;;;;3.15;1.42;;;;;;;;;;5045295;28;20077;-59
2023/05/02 09:43:21;;;;;;;3.38;1.73;;;;;;;;;;5064490;28;20033;-58
2023/05/02 09:45:56;;;;;;;2.08;1.52;;;;;;;;;;5064667;28;20098;-59
2023/05/02 09:48:21;;;;;;;1.85;1.70;;;;;;;;;;5046986;28;20455;-59
2023/05/02 09:50:46;;;;;;;1.70;1.60;;;;;;;;;;5064237;28;20028;-59
2023/05/02 09:53:12;;;;;;;2.30;2.20;;;;;;;;;;5065559;28;20024;-59
2023/05/02 09:55:37;;;;;;;4.43;1.90;;;;;;;;;;5045899;28;20383;-59
2023/05/02 09:58:03;;;;;;;1.90;1.80;;;;;;;;;;5064471;28;20031;-59
2023/05/02 10:00:57;;;;;;;1.90;1.80;;;;;;;;;;5055238;28;20108;-59
2023/05/02 10:03:24;;;;;;;3.90;1.80;;;;;;;;;;5037879;28;20486;-59
2023/05/02 10:05:50;;;;;;;10.50;3.58;;;;;;;;;;5055020;28;20104;-59
2023/05/02 10:08:17;;;;;;;3.17;2.38;;;;;;;;;;5055069;28;20523;-59
2023/05/02 10:10:44;;;;;;;2.22;2.03;;;;;;;;;;5061342;28;20032;-59
2023/05/02 10:13:11;;;;;;;2.13;1.85;;;;;;;;;;5074871;28;20025;-59
2023/05/02 10:15:41;;;;;;;4.38;2.05;;;;;;;;;;5075028;28;20390;-59
2023/05/02 10:18:12;;;;;;;10.38;3.67;;;;;;;;;;5074758;28;20025;-59
2023/05/02 10:20:37;;;;;;;;;;;;;;;;;;5075131;28;20067;-59
2023/05/02 10:23:03;;;;;;;11.90;3.80;;;;;;;;;;5067354;28;19947;-59
2023/05/02 10:25:28;;;;;;;6.00;2.95;;;;;;;;;;5054655;28;20024;-59
2023/05/02 10:27:58;;;;;;;3.17;2.33;;;;;;;;;;5057850;28;20462;-59
2023/05/02 10:30:24;;;;;;;2.42;2.22;;;;;;;;;;5055859;28;20062;-59
2023/05/02 10:32:50;;;;;;;3.90;2.65;;;;;;;;;;5074530;28;20028;-59
2023/05/02 10:35:16;;;;;;;2.85;2.58;;;;;;;;;;5074409;28;20115;-59
2023/05/02 10:37:41;;;;;;;2.85;2.30;;;;;;;;;;5074986;28;20031;-59
2023/05/02 10:40:11;;;;;;;4.93;2.40;;;;;;;;;;5074341;28;20474;-59
2023/05/02 10:42:37;;;;;;;4.30;2.22;;;;;;;;;;5073918;28;20029;-59
2023/05/02 10:45:03;;;;;;;4.07;2.45;;;;;;;;;;5073073;28;20024;-59
2023/05/02 10:47:29;;;;;;;3.00;2.25;;;;;;;;;;5073360;28;20485;-59
2023/05/02 10:50:01;;;;;;;3.55;2.10;;;;;;;;;;5074415;28;20036;-59
2023/05/02 10:52:28;;;;;;;2.45;2.22;;;;;;;;;;5056253;28;20071;-59
2023/05/02 10:55:12;;;;;;;3.70;1.95;;;;;;;;;;5056562;28;20082;-59
2023/05/02 10:57:57;;;;;;;2.55;1.75;;;;;;;;;;5055983;28;20045;-59
2023/05/02 11:00:24;;;;;;;4.05;2.50;;;;;;;;;;5074133;28;20032;-59
2023/05/02 11:02:50;;;;;;;4.30;1.92;;;;;;;;;;5055364;28;20107;-59
2023/05/02 11:05:16;;;;;;;4.07;1.67;;;;;;;;;;5071915;28;20028;-59
2023/05/02 11:07:41;;;;;;;3.00;1.98;;;;;;;;;;5072466;28;20182;-59
2023/05/02 11:10:09;;;;;;;2.40;1.63;;;;;;;;;;5074120;28;20665;-59
2023/05/02 11:12:51;;;;;;;2.53;2.13;;;;;;;;;;5073970;28;20383;-59
2023/05/02 11:15:29;;;;;;;2.58;2.20;;;;;;;;;;5074336;28;20051;-59
2023/05/02 11:17:57;;;;;;;3.53;2.10;;;;;;;;;;5074080;28;20368;-59
2023/05/02 11:20:23;;;;;;;4.45;2.70;;;;;;;;;;5073898;28;20059;-59
2023/05/02 11:22:48;;;;;;;2.47;2.28;;;;;;;;;;5073248;28;20039;-59
2023/05/02 11:25:29;;;;;;;2.50;2.40;;;;;;;;;;5073585;28;20012;-59
2023/05/02 11:27:55;;;;;;;305.40;51.53;;;;;;;;;;5073550;28;20032;-59
2023/05/02 11:30:37;;;;;;;7.72;3.75;;;;;;;;;;5073858;28;20043;-59
2023/05/02 11:33:05;;;;;;;6.00;2.88;;;;;;;;;;5073471;28;20031;-59
2023/05/02 11:35:30;;;;;;;3.85;2.58;;;;;;;;;;5073500;28;20540;-59
2023/05/02 11:38:02;;;;;;;2.47;2.22;;;;;;;;;;5073560;28;20058;-59
2023/05/02 11:40:27;;;;;;;2.40;2.30;;;;;;;;;;5073382;28;20108;-59
2023/05/02 11:42:53;;;;;;;3.42;2.60;;;;;;;;;;5073394;28;20182;-59
2023/05/02 11:45:19;;;;;;;2.35;2.15;;;;;;;;;;5073455;28;20421;-59
2023/05/02 11:47:46;;;;;;;2.95;2.45;;;;;;;;;;5073409;28;20040;-59
2023/05/02 11:50:11;;;;;;;5.18;2.78;;;;;;;;;;5069892;28;20041;-53
2023/05/02 11:52:41;;;;;;;3.22;2.97;;;;;;;;;;5059609;28;20020;-52
2023/05/02 11:55:09;;;;;;;4.18;3.25;;;;;;;;;;5050005;28;20063;-53
2023/05/02 11:57:35;;;;;;;3.55;3.25;;;;;;;;;;5062714;28;20033;-52
2023/05/02 12:00:01;;;;;;;2.65;2.45;;;;;;;;;;5048648;28;20033;-59
2023/05/02 12:02:39;;;;;;;2.78;2.58;;;;;;;;;;5073560;28;20036;-59
2023/05/02 12:05:05;;;;;;;3.17;2.92;;;;;;;;;;5073569;28;20086;-59
2023/05/02 12:07:44;;;;;;;3.55;3.25;;;;;;;;;;5073590;28;20035;-59
2023/05/02 12:10:10;;;;;;;3.53;3.22;;;;;;;;;;5055832;28;20036;-59
2023/05/02 12:12:36;;;;;;;2.20;2.08;;;;;;;;;;5052821;28;20017;-59
2023/05/02 12:15:05;;;;;;;3.30;3.10;;;;;;;;;;5052750;28;20086;-59
2023/05/02 12:17:31;;;;;;;2.53;2.42;;;;;;;;;;5052786;28;20029;-59
2023/05/02 12:19:57;;;;;;;3.22;2.45;;;;;;;;;;5051182;28;20081;-59
2023/05/02 12:22:23;;;;;;;3.20;3.00;;;;;;;;;;5051134;28;20037;-59
2023/05/02 12:24:49;;;;;;;3.65;2.42;;;;;;;;;;5051518;28;20020;-59
2023/05/02 12:27:15;;;;;;;5.03;2.55;;;;;;;;;;5051309;28;20428;-59
2023/05/02 12:29:44;;;;;;;2.95;2.75;;;;;;;;;;5051178;28;20126;-59
2023/05/02 12:32:10;;;;;;;2.85;2.75;;;;;;;;;;5051221;28;20059;-59
2023/05/02 12:34:36;;;;;;;2.85;2.75;;;;;;;;;;5051076;28;20280;-59
2023/05/02 12:37:02;;;;;;;2.95;2.63;;;;;;;;;;5033096;28;20036;-59
2023/05/02 12:39:37;;;;;;;3.80;2.88;;;;;;;;;;5050986;28;20044;-59
2023/05/02 12:42:10;;;;;;;3.17;2.97;;;;;;;;;;5050975;28;20387;-59
2023/05/02 12:44:36;;;;;;;3.15;2.95;;;;;;;;;;5050998;28;20037;-59
2023/05/02 12:47:01;;;;;;;2.85;2.58;;;;;;;;;;5051053;28;20112;-59
2023/05/02 12:49:26;;;;;;;3.10;2.70;;;;;;;;;;5052568;28;20124;-59
2023/05/02 12:51:52;;;;;;;2.97;2.55;;;;;;;;;;5052791;28;20021;-59
2023/05/02 12:54:20;;;;;;;3.63;3.25;;;;;;;;;;5055652;28;20455;-59
2023/05/02 12:56:46;;;;;;;3.35;3.05;;;;;;;;;;5050467;28;20120;-59
2023/05/02 12:59:27;;;;;;;3.58;3.28;;;;;;;;;;5035152;28;20559;-59
2023/05/02 13:01:52;;;;;;;3.40;3.10;;;;;;;;;;5036652;28;20066;-59
2023/05/02 13:04:18;;;;;;;3.60;2.72;;;;;;;;;;5036263;28;20379;-59
2023/05/02 13:06:44;;;;;;;2.65;2.45;;;;;;;;;;5036284;28;20037;-60
2023/05/02 13:09:09;;;;;;;2.75;2.55;;;;;;;;;;5035917;28;20037;-59
2023/05/02 13:11:35;;;;;;;2.78;2.63;;;;;;;;;;5036102;28;20060;-59
2023/05/02 13:14:03;;;;;;;4.07;3.03;;;;;;;;;;5034964;28;20022;-59
2023/05/02 13:16:29;;;;;;;4.20;2.88;;;;;;;;;;5035935;28;20033;-59
2023/05/02 13:18:54;;;;;;;4.20;2.50;;;;;;;;;;5035897;28;20364;-59
2023/05/02 13:21:19;;;;;;;3.15;2.88;;;;;;;;;;5035810;28;20045;-59
2023/05/02 13:23:46;;;;;;;3.72;2.85;;;;;;;;;;5036095;28;20084;-59
2023/05/02 13:26:12;;;;;;;3.60;2.92;;;;;;;;;;5036156;28;20029;-59
2023/05/02 13:28:37;;;;;;;3.80;2.80;;;;;;;;;;5034909;28;20030;-59
2023/05/02 13:31:02;;;;;;;2.83;2.60;;;;;;;;;;5035718;28;20480;-59
2023/05/02 13:33:28;;;;;;;3.08;2.78;;;;;;;;;;5035750;28;20026;-59
2023/05/02 13:35:53;;;;;;;2.88;2.67;;;;;;;;;;5037886;28;20435;-59
2023/05/02 13:38:19;;;;;;;2.30;2.20;;;;;;;;;;5040297;28;20022;-59
2023/05/02 13:40:44;;;;;;;2.90;2.70;;;;;;;;;;5034248;28;20132;-59
2023/05/02 13:43:09;;;;;;;2.60;2.40;;;;;;;;;;5035861;28;20021;-59
2023/05/02 13:45:35;;;;;;;2.67;2.58;;;;;;;;;;5035278;28;20033;-59
2023/05/02 13:48:00;;;;;;;2.78;2.58;;;;;;;;;;5035695;28;20033;-59
2023/05/02 13:50:25;;;;;;;3.10;2.90;;;;;;;;;;5035472;28;20040;-59
2023/05/02 13:52:50;;;;;;;2.22;2.10;;;;;;;;;;5035381;28;20055;-59
2023/05/02 13:55:16;;;;;;;3.22;2.70;;;;;;;;;;5034226;28;20471;-59
2023/05/02 13:57:41;;;;;;;5.65;4.82;;;;;;;;;;5035248;28;20053;-59
2023/05/02 14:00:08;;;;;;;8.45;5.10;;;;;;;;;;5035193;28;20112;-59
2023/05/02 14:02:34;;;;;;;6.38;4.10;;;;;;;;;;5035462;28;20499;-59
2023/05/02 14:04:59;;;;;;;2.92;2.50;;;;;;;;;;5035082;28;20022;-59
2023/05/02 14:07:24;;;;;;;2.65;2.30;;;;;;;;;;5035052;28;20055;-59
2023/05/02 14:09:50;;;;;;;3.03;2.20;;;;;;;;;;5034964;28;20116;-59
2023/05/02 14:12:15;;;;;;;5.78;5.18;;;;;;;;;;5035003;28;20388;-59
2023/05/02 14:14:40;;;;;;;3.08;2.88;;;;;;;;;;5048590;28;20051;-59
2023/05/02 14:17:06;;;;;;;3.40;2.60;;;;;;;;;;5054876;28;20033;-59
2023/05/02 14:19:31;;;;;;;2.35;1.83;;;;;;;;;;5055107;28;20071;-59
2023/05/02 14:21:57;;;;;;;2.20;2.03;;;;;;;;;;5054828;28;20025;-59
2023/05/02 14:24:22;;;;;;;2.42;2.20;;;;;;;;;;5054666;28;20032;-59
2023/05/02 14:26:48;;;;;;;1.90;1.80;;;;;;;;;;5036324;28;20100;-59
2023/05/02 14:29:13;;;;;;;7.22;2.55;;;;;;;;;;5036121;28;20056;-59
2023/05/02 14:31:38;;;;;;;2.25;1.90;;;;;;;;;;5054521;28;20487;-59
2023/05/02 14:34:04;;;;;;;4.18;2.92;;;;;;;;;;5054739;28;20025;-59
2023/05/02 14:36:30;;;;;;;4.57;3.92;;;;;;;;;;5053188;28;20028;-59
2023/05/02 14:38:56;;;;;;;7.53;5.80;;;;;;;;;;5054598;28;20025;-59
2023/05/02 14:41:21;;;;;;;2.53;2.42;;;;;;;;;;5054486;28;20037;-59
2023/05/02 14:43:46;;;;;;;12.93;9.05;;;;;;;;;;5054581;28;20061;-59